createdAt,value
2017-10-07T00:01:24.824Z,13.80
2017-10-07T00:03:53.173Z,18.00
2017-10-07T00:06:21.682Z,14.30
2017-10-07T00:08:50.197Z,15.73
2017-10-07T00:11:18.627Z,14.70
2017-10-07T00:13:47.706Z,12.63
2017-10-07T00:16:16.100Z,14.40
2017-10-07T00:18:44.481Z,8.63
2017-10-07T00:21:13.415Z,9.13
2017-10-07T00:23:43.285Z,11.47
2017-10-07T00:26:11.659Z,14.27
2017-10-07T00:28:40.038Z,11.00
2017-10-07T00:31:08.408Z,9.80
2017-10-07T00:33:36.776Z,13.20
2017-10-07T00:36:05.472Z,18.33
2017-10-07T00:38:33.842Z,14.93
2017-10-07T00:41:02.218Z,14.60
2017-10-07T00:43:31.109Z,12.13
2017-10-07T00:45:59.582Z,12.83
2017-10-07T00:48:28.220Z,13.77
2017-10-07T00:50:57.154Z,10.93
2017-10-07T00:53:25.524Z,16.67
2017-10-07T00:55:53.194Z,12.83
2017-10-07T00:58:22.107Z,12.10
2017-10-07T01:00:49.803Z,16.33
2017-10-07T01:03:18.938Z,17.23
2017-10-07T01:05:47.306Z,11.43
2017-10-07T01:08:16.038Z,24.40
2017-10-07T01:10:44.430Z,6.93
2017-10-07T01:13:13.677Z,9.63
2017-10-07T01:15:42.167Z,15.33
2017-10-07T01:18:10.531Z,18.30
2017-10-07T01:20:38.238Z,18.30
2017-10-07T01:23:05.889Z,13.23
2017-10-07T01:25:35.359Z,12.53
2017-10-07T01:28:03.386Z,14.20
2017-10-07T01:30:31.401Z,14.03
2017-10-07T01:32:59.134Z,12.90
2017-10-07T01:35:27.153Z,13.43
2017-10-07T01:37:56.604Z,16.50
2017-10-07T01:40:24.963Z,9.63
2017-10-07T01:42:53.561Z,13.87
2017-10-07T01:45:21.218Z,14.23
2017-10-07T01:47:49.578Z,17.53
2017-10-07T01:50:17.949Z,18.93
2017-10-07T01:52:46.325Z,15.13
2017-10-07T01:55:14.827Z,11.37
2017-10-07T01:57:43.235Z,22.07
2017-10-07T02:00:12.151Z,17.60
2017-10-07T02:02:40.521Z,12.90
2017-10-07T02:05:09.100Z,15.50
2017-10-07T02:07:38.388Z,13.97
2017-10-07T02:10:06.758Z,14.80
2017-10-07T02:12:35.204Z,17.90
2017-10-07T02:15:04.005Z,15.93
2017-10-07T02:17:32.873Z,13.10
2017-10-07T02:20:01.259Z,14.73
2017-10-07T02:22:29.655Z,13.03
2017-10-07T02:24:58.011Z,14.93
2017-10-07T02:27:27.252Z,7.53
2017-10-07T02:29:57.088Z,13.93
2017-10-07T02:32:26.405Z,14.30
2017-10-07T02:34:55.014Z,11.57
2017-10-07T02:37:23.603Z,15.63
2017-10-07T02:39:51.954Z,11.40
2017-10-07T02:42:20.338Z,12.57
2017-10-07T02:44:48.504Z,15.27
2017-10-07T02:47:16.891Z,12.27
2017-10-07T02:49:45.342Z,11.70
2017-10-07T02:52:13.690Z,10.10
2017-10-07T02:54:42.046Z,8.87
2017-10-07T02:57:10.428Z,18.20
2017-10-07T02:59:38.794Z,11.63
2017-10-07T03:02:07.150Z,6.53
2017-10-07T03:04:35.531Z,13.60
2017-10-07T03:07:04.692Z,17.87
2017-10-07T03:09:33.048Z,11.70
2017-10-07T03:12:01.414Z,15.67
2017-10-07T03:14:30.549Z,11.97
2017-10-07T03:16:59.032Z,24.63
2017-10-07T03:19:27.702Z,18.93
2017-10-07T03:21:56.198Z,13.70
2017-10-07T03:24:24.596Z,20.03
2017-10-07T03:26:54.619Z,16.73
2017-10-07T03:29:23.864Z,11.67
2017-10-07T03:31:53.110Z,22.63
2017-10-07T03:34:21.487Z,16.97
2017-10-07T03:36:49.846Z,14.70
2017-10-07T03:39:18.293Z,13.10
2017-10-07T03:41:46.453Z,10.63
2017-10-07T03:44:15.658Z,12.07
2017-10-07T03:46:44.795Z,10.33
2017-10-07T03:49:13.198Z,9.20
2017-10-07T03:51:42.987Z,14.80
2017-10-07T03:54:11.375Z,16.47
2017-10-07T03:56:39.788Z,9.43
2017-10-07T03:59:08.987Z,13.47
2017-10-07T04:01:37.788Z,14.30
2017-10-07T04:04:06.151Z,11.57
2017-10-07T04:06:34.514Z,16.87
2017-10-07T04:09:02.883Z,9.33
2017-10-07T04:11:32.694Z,16.50
2017-10-07T04:14:01.084Z,9.70
2017-10-07T04:16:29.454Z,10.03
2017-10-07T04:18:57.833Z,12.87
2017-10-07T04:21:26.185Z,16.40
2017-10-07T04:23:54.563Z,12.83
2017-10-07T04:26:23.706Z,14.77
2017-10-07T04:28:52.072Z,19.07
2017-10-07T04:31:20.433Z,15.20
2017-10-07T04:33:49.016Z,14.20
2017-10-07T04:36:17.693Z,15.17
2017-10-07T04:38:46.033Z,14.40
2017-10-07T04:41:15.206Z,10.67
2017-10-07T04:43:43.847Z,7.50
2017-10-07T04:46:12.432Z,14.03
2017-10-07T04:48:41.231Z,14.43
2017-10-07T04:51:09.607Z,8.40
2017-10-07T04:53:37.637Z,13.00
2017-10-07T04:56:07.518Z,9.40
2017-10-07T04:58:35.879Z,9.20
2017-10-07T05:01:03.572Z,13.07
2017-10-07T05:03:32.387Z,10.50
2017-10-07T05:06:00.771Z,10.10
2017-10-07T05:08:29.135Z,8.20
2017-10-07T05:10:57.189Z,15.80
2017-10-07T05:13:25.540Z,9.50
2017-10-07T05:15:53.455Z,9.30
2017-10-07T05:18:21.983Z,8.40
2017-10-07T05:20:50.343Z,11.80
2017-10-07T05:23:18.705Z,10.17
2017-10-07T05:25:47.161Z,4.20
2017-10-07T05:28:15.518Z,10.63
2017-10-07T05:30:43.923Z,10.10
2017-10-07T05:33:12.283Z,13.07
2017-10-07T05:35:40.636Z,9.93
2017-10-07T05:38:09.008Z,9.23
2017-10-07T05:40:38.027Z,11.97
2017-10-07T05:43:06.401Z,10.53
2017-10-07T05:45:34.745Z,9.10
2017-10-07T05:48:04.077Z,9.83
2017-10-07T05:50:32.426Z,15.60
2017-10-07T05:53:00.790Z,9.53
2017-10-07T05:55:29.241Z,10.50
2017-10-07T05:57:57.604Z,11.47
2017-10-07T06:00:25.983Z,11.20
2017-10-07T06:02:54.353Z,4.83
2017-10-07T06:05:22.736Z,8.73
2017-10-07T06:07:51.090Z,13.43
2017-10-07T06:10:18.754Z,8.03
2017-10-07T06:12:47.427Z,16.30
2017-10-07T06:15:15.775Z,8.10
2017-10-07T06:17:44.139Z,9.03
2017-10-07T06:20:12.328Z,8.00
2017-10-07T06:22:41.494Z,13.03
2017-10-07T06:25:09.863Z,14.03
2017-10-07T06:27:38.245Z,16.13
2017-10-07T06:30:05.909Z,11.00
2017-10-07T06:32:34.271Z,16.80
2017-10-07T06:35:02.643Z,13.77
2017-10-07T06:37:31.044Z,14.13
2017-10-07T06:39:59.397Z,14.67
2017-10-07T06:42:27.785Z,19.00
2017-10-07T06:44:56.145Z,13.53
2017-10-07T06:47:24.516Z,13.53
2017-10-07T06:49:52.993Z,16.33
2017-10-07T06:52:21.343Z,11.40
2017-10-07T06:54:50.539Z,12.77
2017-10-07T06:57:19.115Z,17.00
2017-10-07T06:59:47.553Z,18.00
2017-10-07T07:02:15.972Z,15.13
2017-10-07T07:04:44.145Z,10.20
2017-10-07T07:07:12.502Z,22.57
2017-10-07T07:09:40.874Z,14.13
2017-10-07T07:12:09.247Z,20.37
2017-10-07T07:14:37.602Z,10.57
2017-10-07T07:17:05.979Z,13.17
2017-10-07T07:19:34.363Z,7.60
2017-10-07T07:22:02.729Z,16.30
2017-10-07T07:24:31.101Z,9.10
2017-10-07T07:26:59.626Z,11.63
2017-10-07T07:29:27.984Z,10.90
2017-10-07T07:31:56.397Z,13.33
2017-10-07T07:34:24.786Z,13.23
2017-10-07T07:36:53.157Z,11.13
2017-10-07T07:39:21.807Z,12.03
2017-10-07T07:41:50.189Z,14.13
2017-10-07T07:44:18.759Z,13.40
2017-10-07T07:46:47.125Z,8.80
2017-10-07T07:49:15.513Z,13.37
2017-10-07T07:51:44.048Z,11.97
2017-10-07T07:54:12.421Z,11.13
2017-10-07T07:56:40.811Z,12.60
2017-10-07T07:59:09.955Z,11.97
2017-10-07T08:01:38.634Z,16.00
2017-10-07T08:04:07.109Z,13.83
2017-10-07T08:06:35.586Z,17.73
2017-10-07T08:09:03.258Z,15.10
2017-10-07T08:11:31.824Z,14.30
2017-10-07T08:14:01.037Z,14.23
2017-10-07T08:16:29.426Z,20.57
2017-10-07T08:18:57.978Z,19.63
2017-10-07T08:21:26.342Z,15.77
2017-10-07T08:23:54.729Z,15.13
2017-10-07T08:26:22.907Z,13.47
2017-10-07T08:28:51.138Z,9.70
2017-10-07T08:31:20.109Z,9.60
2017-10-07T08:33:48.293Z,10.73
2017-10-07T08:36:16.680Z,7.97
2017-10-07T08:38:45.209Z,10.23
2017-10-07T08:41:13.623Z,9.03
2017-10-07T08:43:41.985Z,18.23
2017-10-07T08:46:10.360Z,10.07
2017-10-07T08:48:38.721Z,14.90
2017-10-07T08:51:07.363Z,13.30
2017-10-07T08:53:35.773Z,12.70
2017-10-07T08:56:04.152Z,9.37
2017-10-07T08:58:32.823Z,13.63
2017-10-07T09:01:01.202Z,12.27
2017-10-07T09:03:29.672Z,14.53
2017-10-07T09:05:58.146Z,13.40
2017-10-07T09:08:26.494Z,10.67
2017-10-07T09:10:54.853Z,12.17
2017-10-07T09:13:23.236Z,10.13
2017-10-07T09:15:51.604Z,12.60
2017-10-07T09:18:19.967Z,10.50
2017-10-07T09:20:48.336Z,7.90
2017-10-07T09:23:16.735Z,10.50
2017-10-07T09:25:45.871Z,5.00
2017-10-07T09:28:14.248Z,19.70
2017-10-07T09:30:42.600Z,7.97
2017-10-07T09:33:10.958Z,6.13
2017-10-07T09:35:39.314Z,8.60
2017-10-07T09:38:08.992Z,8.00
2017-10-07T09:40:37.185Z,6.93
2017-10-07T09:43:05.598Z,6.33
2017-10-07T09:45:33.962Z,5.03
2017-10-07T09:48:02.357Z,6.30
2017-10-07T09:50:30.815Z,8.30
2017-10-07T09:52:59.547Z,5.37
2017-10-07T09:55:27.922Z,7.33
2017-10-07T09:57:57.012Z,7.93
2017-10-07T10:00:26.299Z,10.10
2017-10-07T10:02:54.735Z,10.93
2017-10-07T10:05:23.116Z,8.43
2017-10-07T10:07:51.496Z,10.83
2017-10-07T10:10:19.863Z,11.40
2017-10-07T10:12:48.227Z,10.67
2017-10-07T10:15:16.593Z,9.90
2017-10-07T10:17:44.943Z,6.30
2017-10-07T10:20:13.525Z,9.90
2017-10-07T10:22:41.997Z,9.07
2017-10-07T10:25:10.391Z,11.77
2017-10-07T10:27:39.000Z,14.90
2017-10-07T10:30:07.905Z,10.87
2017-10-07T10:32:37.773Z,10.40
2017-10-07T10:35:06.202Z,11.33
2017-10-07T10:37:34.637Z,9.50
2017-10-07T10:40:03.007Z,16.17
2017-10-07T10:42:31.567Z,11.13
2017-10-07T10:44:59.917Z,13.80
2017-10-07T10:47:29.239Z,13.50
2017-10-07T10:49:57.612Z,12.07
2017-10-07T10:52:26.045Z,13.30
2017-10-07T10:54:54.428Z,10.60
2017-10-07T10:57:22.810Z,11.40
2017-10-07T10:59:51.182Z,10.17
2017-10-07T11:02:19.538Z,7.53
2017-10-07T11:04:48.691Z,13.87
2017-10-07T11:07:17.279Z,15.10
2017-10-07T11:09:45.663Z,15.57
2017-10-07T11:12:14.055Z,12.70
2017-10-07T11:14:42.419Z,12.73
2017-10-07T11:17:10.781Z,12.60
2017-10-07T11:19:39.306Z,12.03
2017-10-07T11:22:07.697Z,9.60
2017-10-07T11:24:35.728Z,10.97
2017-10-07T11:27:04.090Z,13.13
2017-10-07T11:29:32.900Z,6.90
2017-10-07T11:32:01.285Z,11.60
2017-10-07T11:34:29.644Z,12.87
2017-10-07T11:36:58.012Z,10.03
2017-10-07T11:39:26.392Z,13.27
2017-10-07T11:41:54.770Z,9.40
2017-10-07T11:44:23.170Z,11.97
2017-10-07T11:46:51.523Z,13.80
2017-10-07T11:49:20.073Z,14.40
2017-10-07T11:51:48.752Z,11.67
2017-10-07T11:54:17.119Z,9.03
2017-10-07T11:56:45.615Z,7.00
2017-10-07T11:59:13.984Z,6.00
2017-10-07T12:01:42.363Z,7.40
2017-10-07T12:04:10.723Z,11.00
2017-10-07T12:06:39.091Z,8.10
2017-10-07T12:09:08.412Z,11.53
2017-10-07T12:11:36.453Z,11.20
2017-10-07T12:14:04.822Z,6.27
2017-10-07T12:16:34.004Z,8.40
2017-10-07T12:19:02.350Z,8.70
2017-10-07T12:21:30.721Z,12.10
2017-10-07T12:23:58.894Z,7.40
2017-10-07T12:26:27.147Z,7.90
2017-10-07T12:28:55.495Z,8.43
2017-10-07T12:31:23.854Z,10.80
2017-10-07T12:33:52.993Z,6.70
2017-10-07T12:36:21.347Z,8.03
2017-10-07T12:38:49.724Z,7.23
2017-10-07T12:41:18.841Z,11.70
2017-10-07T12:43:47.516Z,9.90
2017-10-07T12:46:16.830Z,10.10
2017-10-07T12:48:45.201Z,6.80
2017-10-07T12:51:13.574Z,8.23
2017-10-07T12:53:41.941Z,8.67
2017-10-07T12:56:10.296Z,9.10
2017-10-07T12:58:38.652Z,7.03
2017-10-07T13:01:07.020Z,7.50
2017-10-07T13:03:35.408Z,14.20
2017-10-07T13:06:04.554Z,6.60
2017-10-07T13:08:33.171Z,6.53
2017-10-07T13:11:02.026Z,8.60
2017-10-07T13:13:30.392Z,9.10
2017-10-07T13:15:58.777Z,7.50
2017-10-07T13:18:27.245Z,8.77
2017-10-07T13:20:55.608Z,6.97
2017-10-07T13:23:23.994Z,4.57
2017-10-07T13:25:52.364Z,5.33
2017-10-07T13:28:20.940Z,7.40
2017-10-07T13:30:49.296Z,8.70
2017-10-07T13:33:18.314Z,4.47
2017-10-07T13:35:47.596Z,7.30
2017-10-07T13:38:15.966Z,6.70
2017-10-07T13:40:44.337Z,8.10
2017-10-07T13:43:13.463Z,8.50
2017-10-07T13:45:41.822Z,5.70
2017-10-07T13:48:10.217Z,8.83
2017-10-07T13:50:38.578Z,8.60
2017-10-07T13:53:06.986Z,5.83
2017-10-07T13:55:35.340Z,6.20
2017-10-07T13:58:03.914Z,6.00
2017-10-07T14:00:32.306Z,7.07
2017-10-07T14:03:01.555Z,6.20
2017-10-07T14:05:30.886Z,9.83
2017-10-07T14:07:59.566Z,7.90
2017-10-07T14:10:28.249Z,11.17
2017-10-07T14:12:56.610Z,10.00
2017-10-07T14:15:25.006Z,8.07
2017-10-07T14:17:53.365Z,8.30
2017-10-07T14:20:21.855Z,13.17
2017-10-07T14:22:50.235Z,9.67
2017-10-07T14:25:19.458Z,10.53
2017-10-07T14:27:47.821Z,5.43
2017-10-07T14:30:16.804Z,7.33
2017-10-07T14:32:45.277Z,8.40
2017-10-07T14:35:13.638Z,8.00
2017-10-07T14:37:42.001Z,9.03
2017-10-07T14:40:10.425Z,8.37
2017-10-07T14:42:38.993Z,10.33
2017-10-07T14:45:07.635Z,6.27
2017-10-07T14:47:36.961Z,10.40
2017-10-07T14:50:05.336Z,7.50
2017-10-07T14:52:33.762Z,9.37
2017-10-07T14:55:02.185Z,6.67
2017-10-07T14:57:31.559Z,5.90
2017-10-07T15:00:00.714Z,7.93
2017-10-07T15:02:28.956Z,6.63
2017-10-07T15:04:57.480Z,8.97
2017-10-07T15:07:25.649Z,5.90
2017-10-07T15:09:53.880Z,6.10
2017-10-07T15:12:22.065Z,7.20
2017-10-07T15:14:50.537Z,6.70
2017-10-07T15:17:18.911Z,5.60
2017-10-07T15:19:47.301Z,8.37
2017-10-07T15:22:15.882Z,7.60
2017-10-07T15:24:44.345Z,8.53
2017-10-07T15:27:12.811Z,9.60
2017-10-07T15:29:41.173Z,5.73
2017-10-07T15:32:09.558Z,5.47
2017-10-07T15:34:37.931Z,5.60
2017-10-07T15:37:06.334Z,8.00
2017-10-07T15:39:34.929Z,5.13
2017-10-07T15:42:03.302Z,8.07
2017-10-07T15:44:31.930Z,5.33
2017-10-07T15:47:00.646Z,6.63
2017-10-07T15:49:29.020Z,9.20
2017-10-07T15:51:57.610Z,6.30
2017-10-07T15:54:26.080Z,7.70
2017-10-07T15:56:54.456Z,5.73
2017-10-07T15:59:22.832Z,5.90
2017-10-07T16:01:51.194Z,5.30
2017-10-07T16:04:21.298Z,5.13
2017-10-07T16:06:50.131Z,6.10
2017-10-07T16:09:18.593Z,3.93
2017-10-07T16:11:51.213Z,4.37
2017-10-07T16:14:19.566Z,4.00
2017-10-07T16:16:48.328Z,4.37
2017-10-07T16:19:16.682Z,3.60
2017-10-07T16:21:45.052Z,4.47
2017-10-07T16:24:13.561Z,6.60
2017-10-07T16:26:41.927Z,3.73
2017-10-07T16:29:10.292Z,4.10
2017-10-07T16:31:38.465Z,4.13
2017-10-07T16:34:06.819Z,4.37
2017-10-07T16:36:35.200Z,4.87
2017-10-07T16:39:03.329Z,6.33
2017-10-07T16:41:31.681Z,6.20
2017-10-07T16:44:01.037Z,4.53
2017-10-07T16:46:29.245Z,4.17
2017-10-07T16:48:57.624Z,4.10
2017-10-07T16:51:25.980Z,5.73
2017-10-07T16:53:54.681Z,4.53
2017-10-07T16:56:23.129Z,7.43
2017-10-07T16:58:51.517Z,4.03
2017-10-07T17:01:19.724Z,6.57
2017-10-07T17:03:47.908Z,4.40
2017-10-07T17:06:16.315Z,4.97
2017-10-07T17:08:44.672Z,5.53
2017-10-07T17:11:13.043Z,4.40
2017-10-07T17:13:41.402Z,5.23
2017-10-07T17:16:10.683Z,8.93
2017-10-07T17:18:40.179Z,4.57
2017-10-07T17:21:08.355Z,9.23
2017-10-07T17:23:36.558Z,4.50
2017-10-07T17:26:04.939Z,5.83
2017-10-07T17:28:33.306Z,4.67
2017-10-07T17:31:01.667Z,4.33
2017-10-07T17:33:30.231Z,4.50
2017-10-07T17:35:58.920Z,7.57
2017-10-07T17:38:27.385Z,4.43
2017-10-07T17:40:56.259Z,4.87
2017-10-07T17:43:24.800Z,3.67
2017-10-07T17:45:54.262Z,4.20
2017-10-07T17:48:22.615Z,4.40
2017-10-07T17:50:55.960Z,4.47
2017-10-07T17:53:24.379Z,7.90
2017-10-07T17:55:52.769Z,4.00
2017-10-07T17:58:21.140Z,4.20
2017-10-07T18:00:49.684Z,6.33
2017-10-07T18:03:18.115Z,4.87
2017-10-07T18:05:46.482Z,5.23
2017-10-07T18:08:14.970Z,9.87
2017-10-07T18:10:43.346Z,5.50
2017-10-07T18:13:11.699Z,5.90
2017-10-07T18:15:40.098Z,6.30
2017-10-07T18:18:08.463Z,9.73
2017-10-07T18:20:36.849Z,7.83
2017-10-07T18:23:05.232Z,6.20
2017-10-07T18:25:33.601Z,6.83
2017-10-07T18:28:02.017Z,11.03
2017-10-07T18:30:30.252Z,8.10
2017-10-07T18:32:58.431Z,7.13
2017-10-07T18:35:26.799Z,8.07
2017-10-07T18:37:55.003Z,12.30
2017-10-07T18:40:23.643Z,11.67
2017-10-07T18:42:51.827Z,8.93
2017-10-07T18:45:20.261Z,14.03
2017-10-07T18:47:48.653Z,8.67
2017-10-07T18:50:17.056Z,11.10
2017-10-07T18:52:45.447Z,16.70
2017-10-07T18:55:13.820Z,13.60
2017-10-07T18:57:42.266Z,13.77
2017-10-07T19:00:10.763Z,13.27
2017-10-07T19:02:39.241Z,17.63
2017-10-07T19:05:07.445Z,14.60
2017-10-07T19:07:35.899Z,11.33
2017-10-07T19:10:04.383Z,13.77
2017-10-07T19:12:32.762Z,11.87
2017-10-07T19:15:00.950Z,11.60
2017-10-07T19:17:30.244Z,13.80
2017-10-07T19:19:58.720Z,14.27
2017-10-07T19:22:27.397Z,12.73
2017-10-07T19:24:55.844Z,11.10
2017-10-07T19:27:24.210Z,12.23
2017-10-07T19:29:52.820Z,10.27
2017-10-07T19:32:21.185Z,11.27
2017-10-07T19:34:50.392Z,11.77
2017-10-07T19:37:18.760Z,9.53
2017-10-07T19:39:47.109Z,10.20
2017-10-07T19:42:15.502Z,12.50
2017-10-07T19:44:43.873Z,10.20
2017-10-07T19:47:12.242Z,10.67
2017-10-07T19:49:40.622Z,14.20
2017-10-07T19:52:09.012Z,9.77
2017-10-07T19:54:37.438Z,9.20
2017-10-07T19:57:06.092Z,10.97
2017-10-07T19:59:34.476Z,8.57
2017-10-07T20:02:02.879Z,14.07
2017-10-07T20:04:31.306Z,9.90
2017-10-07T20:06:59.678Z,9.70
2017-10-07T20:09:28.066Z,13.00
2017-10-07T20:11:56.418Z,11.03
2017-10-07T20:14:24.958Z,10.23
2017-10-07T20:16:53.388Z,13.30
2017-10-07T20:19:23.206Z,11.63
2017-10-07T20:21:51.582Z,10.83
2017-10-07T20:24:19.980Z,13.87
2017-10-07T20:26:48.444Z,10.23
2017-10-07T20:29:16.830Z,11.33
2017-10-07T20:31:45.210Z,10.70
2017-10-07T20:34:13.583Z,11.30
2017-10-07T20:36:47.464Z,10.83
2017-10-07T20:39:15.911Z,12.40
2017-10-07T20:41:46.811Z,12.10
2017-10-07T20:44:15.288Z,15.50
2017-10-07T20:46:43.674Z,12.43
2017-10-07T20:49:12.047Z,10.50
2017-10-07T20:51:40.627Z,17.63
2017-10-07T20:54:09.005Z,12.87
2017-10-07T20:56:37.370Z,12.60
2017-10-07T20:59:06.537Z,13.17
2017-10-07T21:01:34.913Z,15.40
2017-10-07T21:04:03.336Z,12.00
2017-10-07T21:06:31.827Z,11.43
2017-10-07T21:09:00.483Z,14.90
2017-10-07T21:11:29.850Z,16.77
2017-10-07T21:13:58.345Z,12.27
2017-10-07T21:16:26.751Z,12.27
2017-10-07T21:18:55.131Z,15.60
2017-10-07T21:21:23.518Z,12.40
2017-10-07T21:23:53.360Z,15.30
2017-10-07T21:26:22.454Z,11.77
2017-10-07T21:28:51.386Z,12.77
2017-10-07T21:31:19.887Z,11.93
2017-10-07T21:33:48.249Z,12.50
2017-10-07T21:36:17.315Z,12.17
2017-10-07T21:38:45.703Z,14.00
2017-10-07T21:41:14.078Z,12.53
2017-10-07T21:43:42.292Z,14.27
2017-10-07T21:46:10.670Z,17.07
2017-10-07T21:48:39.044Z,12.60
2017-10-07T21:51:07.343Z,14.87
2017-10-07T21:53:35.724Z,13.27
2017-10-07T21:56:04.294Z,14.07
2017-10-07T21:58:32.667Z,14.63
2017-10-07T22:01:01.053Z,15.00
2017-10-07T22:03:29.461Z,15.60
2017-10-07T22:05:57.862Z,19.70
2017-10-07T22:08:26.260Z,14.77
2017-10-07T22:10:54.654Z,16.27
2017-10-07T22:13:23.234Z,14.30
2017-10-07T22:15:51.624Z,17.83
2017-10-07T22:18:20.068Z,15.93
2017-10-07T22:20:48.489Z,17.90
2017-10-07T22:23:16.846Z,16.07
2017-10-07T22:25:45.250Z,16.97
2017-10-07T22:28:14.003Z,18.67
2017-10-07T22:30:42.175Z,16.97
2017-10-07T22:33:10.579Z,17.90
2017-10-07T22:35:39.996Z,19.20
2017-10-07T22:38:08.370Z,17.00
2017-10-07T22:40:36.806Z,18.57
2017-10-07T22:43:05.222Z,16.23
2017-10-07T22:45:34.525Z,14.47
2017-10-07T22:48:03.061Z,19.73
2017-10-07T22:50:31.444Z,19.17
2017-10-07T22:53:00.612Z,15.20
2017-10-07T22:55:29.019Z,15.30
2017-10-07T22:57:58.190Z,16.50
2017-10-07T23:00:26.683Z,18.60
2017-10-07T23:02:55.805Z,21.10
2017-10-07T23:05:24.825Z,16.70
2017-10-07T23:07:54.380Z,16.27
2017-10-07T23:10:22.746Z,16.33
2017-10-07T23:12:54.911Z,17.20
2017-10-07T23:15:23.344Z,18.87
2017-10-07T23:17:51.714Z,16.23
2017-10-07T23:20:20.078Z,17.50
2017-10-07T23:22:48.450Z,18.70
2017-10-07T23:25:16.833Z,18.80
2017-10-07T23:27:45.220Z,23.33
2017-10-07T23:30:13.583Z,20.83
2017-10-07T23:32:42.733Z,24.77
2017-10-07T23:35:11.118Z,21.80
2017-10-07T23:37:40.251Z,22.77
2017-10-07T23:40:08.680Z,23.83
2017-10-07T23:42:37.066Z,24.03
2017-10-07T23:45:05.442Z,22.90
2017-10-07T23:47:34.369Z,27.40
2017-10-07T23:50:03.520Z,25.83
2017-10-07T23:52:31.885Z,30.93
2017-10-07T23:55:00.073Z,34.57
2017-10-07T23:57:28.437Z,31.53
2017-10-07T23:59:56.839Z,27.23
